Time;durP1;ratioP1;P1;durP2;ratioP2;P2;SDS_P1;SDS_P2;PMS_P1;PMS_P2;Temp;Humidity;BMP_temperature;BMP_pressure;BME280_temperature;BME280_humidity;BME280_pressure;Samples;Min_cycle;Max_cycle;Signal;HPM_P1;HPM_P2
2021/09/21 00:01:55;;;;;;;3.25;1.30;;;14.50;99.90;;;;;;5070737;28;20203;-75
2021/09/21 00:04:26;;;;;;;2.88;1.73;;;14.30;99.90;;;;;;5071474;28;20230;-77
2021/09/21 00:06:53;;;;;;;4.30;1.30;;;14.30;99.90;;;;;;5070676;28;20205;-81
2021/09/21 00:09:21;;;;;;;4.50;1.67;;;14.30;99.90;;;;;;5070913;28;20210;-77
2021/09/21 00:11:48;;;;;;;1.73;1.20;;;14.30;99.90;;;;;;5071425;28;20210;-75
2021/09/21 00:14:16;;;;;;;3.50;1.50;;;14.40;99.90;;;;;;5070721;28;20256;-80
2021/09/21 00:16:43;;;;;;;5.88;1.55;;;14.40;99.90;;;;;;5070906;28;20214;-78
2021/09/21 00:19:10;;;;;;;3.03;1.20;;;14.40;99.90;;;;;;5070694;28;20206;-80
2021/09/21 00:21:38;;;;;;;3.35;1.60;;;14.40;99.90;;;;;;5070959;28;20206;-78
2021/09/21 00:24:05;;;;;;;2.58;1.38;;;14.40;99.90;;;;;;5070378;28;20238;-81
2021/09/21 00:26:32;;;;;;;1.77;1.25;;;14.30;99.90;;;;;;5070905;28;20206;-79
2021/09/21 00:29:00;;;;;;;2.58;1.23;;;14.40;99.90;;;;;;5070122;28;20202;-83
2021/09/21 00:31:37;;;;;;;6.50;1.70;;;14.40;99.90;;;;;;5070840;28;20626;-81
2021/09/21 00:34:07;;;;;;;5.10;2.00;;;14.40;99.90;;;;;;5070786;28;20202;-81
2021/09/21 00:36:36;;;;;;;2.88;1.58;;;14.30;99.90;;;;;;5070741;28;20210;-83
2021/09/21 00:39:06;;;;;;;4.15;1.85;;;14.20;99.90;;;;;;5070532;28;20289;-80
2021/09/21 00:41:36;;;;;;;6.28;2.47;;;14.10;99.90;;;;;;5070114;28;20263;-78
2021/09/21 00:44:03;;;;;;;4.72;2.25;;;14.10;99.90;;;;;;5070703;28;20233;-77
2021/09/21 00:46:31;;;;;;;2.35;1.52;;;14.10;99.90;;;;;;5071153;28;20206;-72
2021/09/21 00:48:58;;;;;;;3.45;1.77;;;14.10;99.90;;;;;;5070477;28;20205;-84
2021/09/21 00:51:26;;;;;;;4.00;1.38;;;14.10;99.90;;;;;;5068316;28;20198;-82
2021/09/21 00:53:54;;;;;;;3.10;1.73;;;14.20;99.90;;;;;;5070302;28;20264;-78
2021/09/21 00:56:21;;;;;;;3.80;1.60;;;14.20;99.90;;;;;;5070569;28;20206;-84
2021/09/21 00:58:48;;;;;;;2.55;1.80;;;14.30;99.90;;;;;;5071211;28;20202;-81
2021/09/21 01:01:15;;;;;;;2.45;1.55;;;14.30;99.90;;;;;;5070456;28;20289;-75
2021/09/21 01:03:44;;;;;;;6.13;2.47;;;14.30;99.90;;;;;;5070345;28;20256;-78
2021/09/21 01:06:11;;;;;;;2.53;1.50;;;14.30;99.90;;;;;;5070353;28;20206;-75
2021/09/21 01:08:41;;;;;;;2.70;1.60;;;14.30;99.90;;;;;;5070257;28;20206;-77
2021/09/21 01:11:10;;;;;;;3.00;2.60;;;14.40;99.90;;;;;;5070081;28;20557;-77
2021/09/21 01:13:37;;;;;;;3.67;2.05;;;14.40;99.90;;;;;;5070731;28;20297;-78
2021/09/21 01:16:05;;;;;;;4.53;2.00;;;14.40;99.90;;;;;;5069738;28;20264;-79
2021/09/21 01:18:32;;;;;;;4.18;1.80;;;14.40;99.90;;;;;;5070507;28;20202;-79
2021/09/21 01:21:04;;;;;;;2.90;1.73;;;14.50;99.90;;;;;;5069858;28;20206;-79
2021/09/21 01:23:43;;;;;;;5.13;3.20;;;14.50;99.90;;;;;;5070706;28;20263;-78
2021/09/21 01:26:10;;;;;;;10.20;9.20;;;14.40;99.90;;;;;;5069407;28;20650;-79
2021/09/21 01:28:38;;;;;;;25.13;22.80;;;14.40;99.90;;;;;;5070259;28;20210;-79
2021/09/21 01:31:05;;;;;;;35.40;25.65;;;14.40;99.90;;;;;;5069931;28;20261;-80
2021/09/21 01:33:32;;;;;;;36.00;32.30;;;14.50;99.90;;;;;;5069854;28;20296;-80
2021/09/21 01:35:59;;;;;;;36.92;32.53;;;14.50;99.90;;;;;;5070015;28;20211;-76
2021/09/21 01:38:26;;;;;;;32.90;25.13;;;14.40;99.90;;;;;;5069906;28;20751;-76
2021/09/21 01:40:54;;;;;;;24.20;20.63;;;14.40;99.90;;;;;;5069967;28;20255;-76
2021/09/21 01:43:22;;;;;;;15.68;11.30;;;14.50;99.90;;;;;;5070028;28;20202;-76
2021/09/21 01:45:49;;;;;;;20.27;13.13;;;14.30;99.90;;;;;;5070527;28;20294;-78
2021/09/21 01:48:16;;;;;;;16.02;11.20;;;14.20;99.90;;;;;;5069392;28;20203;-80
2021/09/21 01:50:47;;;;;;;15.40;11.80;;;14.20;99.90;;;;;;5070444;28;20206;-76
2021/09/21 01:53:22;;;;;;;16.40;7.93;;;14.30;99.90;;;;;;5071357;28;20602;-77
2021/09/21 01:58:47;;;;;;;12.20;7.90;;;14.10;99.90;;;;;;5073419;28;20216;-80
2021/09/21 02:01:15;;;;;;;12.68;7.30;;;14.20;99.90;;;;;;5102783;28;20208;-77
2021/09/21 02:03:43;;;;;;;6.63;3.80;;;14.10;99.90;;;;;;5073140;28;20210;-76
2021/09/21 02:06:10;;;;;;;3.95;2.30;;;14.10;99.90;;;;;;5073208;28;20233;-77
2021/09/21 02:08:37;;;;;;;2.13;1.60;;;14.20;99.90;;;;;;5073648;28;20218;-78
2021/09/21 02:11:05;;;;;;;3.20;2.08;;;14.30;99.90;;;;;;5073216;28;20263;-77
2021/09/21 02:13:34;;;;;;;3.50;1.63;;;14.30;99.90;;;;;;5073632;28;20210;-78
2021/09/21 02:16:02;;;;;;;2.78;1.50;;;14.20;99.90;;;;;;5072944;28;20198;-75
2021/09/21 02:18:29;;;;;;;2.33;1.10;;;14.30;99.90;;;;;;5073691;28;20218;-76
2021/09/21 02:20:56;;;;;;;4.25;1.88;;;14.30;99.90;;;;;;5072900;28;20251;-79
2021/09/21 02:23:23;;;;;;;4.20;1.70;;;14.30;99.90;;;;;;5073528;28;20206;-78
2021/09/21 02:25:50;;;;;;;10.75;1.65;;;14.30;99.90;;;;;;5072927;28;20279;-79
2021/09/21 02:28:17;;;;;;;3.90;1.83;;;14.30;99.90;;;;;;5073810;28;20605;-80
2021/09/21 02:30:46;;;;;;;4.22;1.70;;;14.30;99.90;;;;;;5073358;28;20654;-81
2021/09/21 02:33:13;;;;;;;3.28;1.42;;;14.40;99.90;;;;;;5072708;28;20244;-80
2021/09/21 02:35:40;;;;;;;2.17;1.67;;;14.30;99.90;;;;;;5073204;28;20267;-77
2021/09/21 02:38:08;;;;;;;7.18;1.45;;;14.30;99.90;;;;;;5072677;28;20289;-79
2021/09/21 02:40:35;;;;;;;1.75;1.63;;;14.20;99.90;;;;;;5073005;28;20559;-78
2021/09/21 02:43:02;;;;;;;3.35;1.17;;;14.00;99.90;;;;;;5072610;28;20232;-82
2021/09/21 02:45:29;;;;;;;4.25;1.80;;;13.90;99.90;;;;;;5072658;28;20691;-82
2021/09/21 02:47:57;;;;;;;2.60;1.67;;;14.00;99.90;;;;;;5072364;28;20202;-81
2021/09/21 02:50:24;;;;;;;6.20;1.73;;;14.00;99.90;;;;;;5072997;28;20206;-82
2021/09/21 02:52:51;;;;;;;2.25;1.60;;;14.00;99.90;;;;;;5072535;28;20565;-84
2021/09/21 02:55:18;;;;;;;4.22;1.45;;;14.10;99.90;;;;;;5073409;28;20203;-82
2021/09/21 02:57:45;;;;;;;3.05;1.33;;;14.20;99.90;;;;;;5073023;28;20551;-81
2021/09/21 03:00:17;;;;;;;3.03;1.63;;;14.20;99.90;;;;;;5071698;28;20678;-81
2021/09/21 03:02:44;;;;;;;4.55;1.48;;;14.10;99.90;;;;;;5072778;28;20593;-80
2021/09/21 03:05:14;;;;;;;4.75;1.85;;;14.10;99.90;;;;;;5071606;28;20237;-80
2021/09/21 03:07:44;;;;;;;2.50;1.65;;;14.10;99.90;;;;;;5072842;28;20216;-81
2021/09/21 03:10:24;;;;;;;3.80;1.98;;;14.10;99.90;;;;;;5072455;28;20207;-81
2021/09/21 03:18:19;;;;;;;11.63;1.85;;;14.10;99.90;;;;;;5072553;28;20224;-81
2021/09/21 03:20:47;;;;;;;1.95;0.88;;;14.10;99.90;;;;;;5072402;28;20701;-80
2021/09/21 03:23:14;;;;;;;6.25;1.90;;;14.00;99.90;;;;;;5072211;28;20206;-80
2021/09/21 03:25:41;;;;;;;1.98;1.35;;;14.10;99.90;;;;;;5072011;28;20241;-81
2021/09/21 03:28:08;;;;;;;8.75;1.23;;;14.10;99.90;;;;;;5071787;28;20247;-83
2021/09/21 03:30:35;;;;;;;3.03;1.40;;;14.20;99.90;;;;;;5071877;28;20256;-83
2021/09/21 03:33:03;;;;;;;4.15;2.65;;;14.10;99.90;;;;;;5071827;28;20260;-84
2021/09/21 03:35:33;;;;;;;4.40;1.35;;;14.10;99.90;;;;;;5071065;28;20222;-82
2021/09/21 03:38:01;;;;;;;8.20;1.67;;;14.10;99.90;;;;;;5071130;28;20202;-82
2021/09/21 03:40:28;;;;;;;3.75;1.27;;;14.10;99.90;;;;;;5072191;28;20214;-82
2021/09/21 03:42:55;;;;;;;4.03;1.48;;;14.00;99.90;;;;;;5071097;28;20245;-84
2021/09/21 03:45:24;;;;;;;5.22;1.88;;;14.00;99.90;;;;;;5072217;28;20311;-82
2021/09/21 03:47:51;;;;;;;7.82;2.13;;;14.00;99.90;;;;;;5071387;28;20256;-79
2021/09/21 03:50:18;;;;;;;4.60;1.90;;;14.00;99.90;;;;;;5072276;28;20205;-79
2021/09/21 03:52:45;;;;;;;5.43;1.73;;;13.90;99.90;;;;;;5071343;28;20217;-80
2021/09/21 03:55:14;;;;;;;2.90;1.60;;;13.90;99.90;;;;;;5069922;28;20851;-80
2021/09/21 03:57:41;;;;;;;7.78;2.17;;;13.90;99.90;;;;;;5071194;28;20210;-80
2021/09/21 04:00:10;;;;;;;6.78;1.85;;;13.90;99.90;;;;;;5070377;28;20202;-79
2021/09/21 04:02:39;;;;;;;6.50;1.85;;;14.00;99.90;;;;;;5065420;28;20655;-79
2021/09/21 04:05:07;;;;;;;3.50;1.70;;;14.10;99.90;;;;;;5099291;28;20233;-78
2021/09/21 04:07:34;;;;;;;3.45;1.67;;;14.00;99.90;;;;;;5069982;28;20207;-80
2021/09/21 04:10:01;;;;;;;4.22;1.65;;;13.90;99.90;;;;;;5070426;28;20205;-78
2021/09/21 04:12:29;;;;;;;2.65;1.45;;;13.80;99.90;;;;;;5070617;28;20206;-78
2021/09/21 04:14:56;;;;;;;4.30;2.03;;;13.80;99.90;;;;;;5070301;28;20206;-77
2021/09/21 04:17:23;;;;;;;4.45;1.67;;;13.80;99.90;;;;;;5071000;28;20255;-82
2021/09/21 04:19:50;;;;;;;5.07;1.70;;;13.70;99.90;;;;;;5071077;28;20206;-82
2021/09/21 04:22:18;;;;;;;7.80;2.78;;;13.70;99.90;;;;;;5070424;28;20276;-79
2021/09/21 04:24:44;;;;;;;6.43;2.58;;;13.80;99.90;;;;;;5070858;28;20630;-80
2021/09/21 04:27:12;;;;;;;5.43;2.67;;;13.90;99.90;;;;;;5070053;28;20206;-78
2021/09/21 04:29:40;;;;;;;5.60;3.15;;;14.00;99.90;;;;;;5069861;28;20210;-81
2021/09/21 04:32:08;;;;;;;4.65;3.03;;;14.00;99.90;;;;;;5070104;28;20229;-78
2021/09/21 04:34:35;;;;;;;8.35;3.75;;;14.00;99.90;;;;;;5070191;28;20205;-80
2021/09/21 04:37:03;;;;;;;6.95;3.90;;;14.00;99.90;;;;;;5069601;28;20297;-81
2021/09/21 04:39:30;;;;;;;5.80;3.58;;;13.90;99.90;;;;;;5070075;28;20316;-78
2021/09/21 04:41:57;;;;;;;6.97;3.50;;;13.90;99.90;;;;;;5070349;28;20214;-80
2021/09/21 04:44:24;;;;;;;6.85;3.38;;;13.80;99.90;;;;;;5069395;28;20245;-79
2021/09/21 04:46:52;;;;;;;5.13;2.85;;;13.90;99.90;;;;;;5069627;28;20233;-78
2021/09/21 04:49:19;;;;;;;5.55;3.10;;;14.00;99.90;;;;;;5069483;28;20646;-78
2021/09/21 04:51:46;;;;;;;7.93;2.80;;;14.00;99.90;;;;;;5070514;28;20280;-79
2021/09/21 04:54:13;;;;;;;4.30;2.08;;;14.00;99.90;;;;;;5068548;28;20245;-79
2021/09/21 04:56:40;;;;;;;5.63;2.38;;;14.10;99.90;;;;;;5070364;28;20289;-80
2021/09/21 04:59:07;;;;;;;4.22;2.42;;;14.10;99.90;;;;;;5070436;28;20210;-79
2021/09/21 05:01:36;;;;;;;2.35;2.08;;;14.00;99.90;;;;;;5070973;28;20207;-79
2021/09/21 05:04:05;;;;;;;5.80;2.78;;;14.10;99.90;;;;;;5069931;28;20256;-80
2021/09/21 05:06:32;;;;;;;5.35;1.95;;;14.00;99.90;;;;;;5061644;28;20308;-80
2021/09/21 05:08:59;;;;;;;3.20;2.10;;;14.00;99.90;;;;;;5070019;28;20202;-81
2021/09/21 05:11:26;;;;;;;4.35;2.13;;;13.90;99.90;;;;;;5070021;28;20747;-82
2021/09/21 05:13:53;;;;;;;7.25;3.05;;;13.80;99.90;;;;;;5069170;28;20202;-80
2021/09/21 05:16:21;;;;;;;6.57;1.90;;;13.80;99.90;;;;;;5069398;28;20210;-79
2021/09/21 05:18:48;;;;;;;7.07;3.03;;;13.80;99.90;;;;;;5079612;28;20205;-82
2021/09/21 05:21:18;;;;;;;7.18;2.78;;;13.70;99.90;;;;;;5077723;28;20209;-81
2021/09/21 05:23:45;;;;;;;8.43;2.85;;;13.70;99.90;;;;;;5078259;28;20323;-80
2021/09/21 05:26:12;;;;;;;5.03;2.33;;;13.70;99.90;;;;;;5069891;28;20284;-81
2021/09/21 05:28:40;;;;;;;4.95;2.67;;;13.60;99.90;;;;;;5076950;28;20217;-81
2021/09/21 05:31:07;;;;;;;4.85;2.50;;;13.70;99.90;;;;;;5085953;28;20291;-86
2021/09/21 05:33:34;;;;;;;3.72;2.60;;;13.70;99.90;;;;;;5074393;28;20564;-86
2021/09/21 05:36:01;;;;;;;5.78;2.63;;;13.70;99.90;;;;;;5073300;28;20210;-76
2021/09/21 05:38:30;;;;;;;5.50;2.58;;;13.80;99.90;;;;;;5074081;28;20209;-77
2021/09/21 05:40:57;;;;;;;7.22;2.58;;;13.80;99.90;;;;;;5073626;28;20206;-77
2021/09/21 05:43:24;;;;;;;4.10;2.72;;;13.90;99.90;;;;;;5076077;28;20628;-76
2021/09/21 05:45:51;;;;;;;9.52;3.53;;;13.90;99.90;;;;;;5075396;28;20445;-76
2021/09/21 05:48:18;;;;;;;4.78;1.50;;;14.00;99.90;;;;;;5078901;28;20252;-76
2021/09/21 05:50:45;;;;;;;10.52;2.70;;;14.00;99.90;;;;;;5073913;28;20293;-76
2021/09/21 05:53:12;;;;;;;4.82;2.25;;;14.00;99.90;;;;;;5073169;28;20217;-76
2021/09/21 05:55:40;;;;;;;4.43;2.05;;;14.10;99.90;;;;;;5073650;28;20248;-77
2021/09/21 05:58:07;;;;;;;8.35;2.60;;;14.00;99.90;;;;;;5072317;28;20214;-77
2021/09/21 06:00:35;;;;;;;8.90;3.03;;;14.00;99.90;;;;;;5074790;28;20209;-76
2021/09/21 06:03:02;;;;;;;8.40;2.03;;;13.90;99.90;;;;;;5074789;28;20275;-77
2021/09/21 06:05:29;;;;;;;4.82;2.25;;;13.90;99.90;;;;;;5072753;28;20731;-76
2021/09/21 06:07:56;;;;;;;4.22;2.35;;;13.90;99.90;;;;;;5072926;28;20206;-76
2021/09/21 06:10:25;;;;;;;3.72;2.63;;;14.00;99.90;;;;;;5073158;28;20240;-76
2021/09/21 06:12:53;;;;;;;6.15;2.33;;;14.10;99.90;;;;;;5072934;28;20681;-76
2021/09/21 06:15:21;;;;;;;3.70;2.30;;;14.00;99.90;;;;;;5074784;28;20247;-74
2021/09/21 06:17:49;;;;;;;4.70;2.40;;;14.00;99.90;;;;;;5067536;28;20206;-74
2021/09/21 06:20:17;;;;;;;7.50;2.05;;;14.00;99.90;;;;;;5076618;28;20214;-77
2021/09/21 06:22:46;;;;;;;4.70;2.13;;;14.10;99.90;;;;;;5073853;28;20202;-72
2021/09/21 06:25:15;;;;;;;3.03;1.77;;;14.10;99.90;;;;;;5074039;28;20241;-73
2021/09/21 06:27:42;;;;;;;6.90;2.60;;;14.20;99.90;;;;;;5076349;28;20279;-74
2021/09/21 06:30:15;;;;;;;4.00;2.13;;;14.20;99.90;;;;;;5074660;28;20206;-75
2021/09/21 06:32:42;;;;;;;4.93;2.20;;;14.20;99.90;;;;;;5073615;28;20288;-75
2021/09/21 06:35:10;;;;;;;10.60;3.13;;;14.10;99.90;;;;;;5074766;28;20300;-71
2021/09/21 06:37:37;;;;;;;6.78;2.30;;;14.10;99.90;;;;;;5077598;28;20766;-71
2021/09/21 06:40:05;;;;;;;4.78;2.55;;;14.20;99.90;;;;;;5083925;28;20206;-71
2021/09/21 06:42:33;;;;;;;3.70;2.10;;;14.30;99.90;;;;;;5088529;28;20205;-72
2021/09/21 06:45:01;;;;;;;6.78;2.55;;;14.40;99.90;;;;;;5078335;28;20284;-71
2021/09/21 06:47:29;;;;;;;2.58;2.00;;;14.40;99.90;;;;;;5079933;28;20270;-72
2021/09/21 06:49:56;;;;;;;5.00;2.20;;;14.40;99.90;;;;;;5076346;28;20267;-70
2021/09/21 06:52:24;;;;;;;10.40;2.30;;;14.40;99.90;;;;;;5077087;28;20202;-71
2021/09/21 06:54:51;;;;;;;3.55;2.20;;;14.50;99.90;;;;;;5074173;28;20248;-76
2021/09/21 06:57:18;;;;;;;5.43;2.40;;;14.50;99.90;;;;;;5083702;28;20669;-74
2021/09/21 06:59:45;;;;;;;4.45;2.05;;;14.40;99.90;;;;;;5073463;28;20206;-73
2021/09/21 07:02:12;;;;;;;4.47;1.75;;;14.40;99.90;;;;;;5072873;28;20245;-71
2021/09/21 07:04:40;;;;;;;5.10;2.25;;;14.40;99.90;;;;;;5072391;28;20267;-76
2021/09/21 07:07:07;;;;;;;4.70;1.95;;;14.30;99.90;;;;;;5074269;28;20286;-78
2021/09/21 07:09:34;;;;;;;3.83;2.30;;;14.20;99.90;;;;;;5074239;28;20666;-74
2021/09/21 07:12:01;;;;;;;5.05;2.13;;;14.20;99.90;;;;;;5076275;28;20198;-72
2021/09/21 07:14:28;;;;;;;4.20;2.10;;;14.20;99.90;;;;;;5075060;28;20255;-74
2021/09/21 07:16:55;;;;;;;6.40;2.38;;;14.20;99.90;;;;;;5074425;28;20213;-74
2021/09/21 07:19:22;;;;;;;3.80;3.05;;;14.20;99.90;;;;;;5073675;28;20202;-71
2021/09/21 07:21:51;;;;;;;3.72;2.00;;;14.20;99.90;;;;;;5083670;28;20205;-73
2021/09/21 07:24:18;;;;;;;5.57;2.28;;;14.20;99.90;;;;;;5082231;28;20214;-74
2021/09/21 07:26:48;;;;;;;9.98;2.88;;;14.30;99.90;;;;;;5088141;28;20229;-77
2021/09/21 07:29:15;;;;;;;6.10;2.75;;;14.30;99.90;;;;;;5075509;28;20296;-73
2021/09/21 07:31:42;;;;;;;2.00;1.67;;;14.30;99.90;;;;;;5073512;28;20210;-73
2021/09/21 07:34:09;;;;;;;7.57;2.80;;;14.30;99.90;;;;;;5079762;28;20626;-71
2021/09/21 07:36:36;;;;;;;3.45;2.60;;;14.40;99.90;;;;;;5079540;28;20202;-70
2021/09/21 07:39:05;;;;;;;7.32;2.10;;;14.30;99.90;;;;;;5078472;28;20201;-72
2021/09/21 07:41:33;;;;;;;3.53;2.13;;;14.40;99.90;;;;;;5075389;28;20230;-73
2021/09/21 07:44:00;;;;;;;3.90;2.17;;;14.50;99.90;;;;;;5082674;28;20210;-73
2021/09/21 07:46:27;;;;;;;9.70;2.35;;;14.50;99.90;;;;;;5083215;28;20222;-72
2021/09/21 07:48:54;;;;;;;6.10;2.28;;;14.40;99.90;;;;;;5081050;28;20265;-73
2021/09/21 07:51:21;;;;;;;5.22;2.17;;;14.40;99.90;;;;;;5070541;28;20287;-73
2021/09/21 07:53:47;;;;;;;4.80;1.67;;;14.40;99.90;;;;;;5074599;28;20222;-74
2021/09/21 07:56:16;;;;;;;3.25;2.22;;;14.50;99.90;;;;;;5071069;28;20669;-73
2021/09/21 07:58:43;;;;;;;4.10;2.40;;;14.50;99.90;;;;;;5071929;28;20202;-74
2021/09/21 08:01:10;;;;;;;4.53;2.17;;;14.60;99.90;;;;;;5070969;28;20255;-76
2021/09/21 08:03:37;;;;;;;7.35;2.28;;;14.60;99.90;;;;;;5071171;28;20619;-75
2021/09/21 08:06:04;;;;;;;4.47;2.55;;;14.60;99.90;;;;;;5070954;28;20202;-74
2021/09/21 08:08:31;;;;;;;5.68;2.08;;;14.70;99.90;;;;;;5071387;28;20738;-75
2021/09/21 08:11:01;;;;;;;3.33;1.92;;;14.80;99.90;;;;;;5070884;28;20210;-74
2021/09/21 08:13:30;;;;;;;6.75;2.50;;;14.70;99.90;;;;;;5076417;28;20283;-74
2021/09/21 08:15:57;;;;;;;4.60;1.52;;;14.70;99.90;;;;;;5073177;28;20300;-73
2021/09/21 08:18:25;;;;;;;5.43;2.28;;;14.80;99.90;;;;;;5080129;28;20352;-73
2021/09/21 08:20:52;;;;;;;4.78;1.65;;;14.70;99.90;;;;;;5086017;28;20247;-74
2021/09/21 08:23:19;;;;;;;4.78;1.67;;;14.50;99.90;;;;;;5089003;28;20247;-74
2021/09/21 08:25:46;;;;;;;2.90;1.98;;;14.60;99.90;;;;;;5082318;28;20324;-77
2021/09/21 08:28:14;;;;;;;3.75;2.08;;;14.70;99.90;;;;;;5075550;28;20224;-74
2021/09/21 08:30:42;;;;;;;9.13;2.35;;;14.60;99.90;;;;;;5086261;28;20206;-73
2021/09/21 08:33:09;;;;;;;5.63;1.77;;;14.60;99.90;;;;;;5066042;28;20536;-72
2021/09/21 08:35:36;;;;;;;4.18;1.70;;;14.70;99.90;;;;;;5084762;28;20669;-75
2021/09/21 08:38:04;;;;;;;5.00;1.88;;;14.80;99.90;;;;;;5075175;28;20263;-75
2021/09/21 08:40:31;;;;;;;3.00;1.95;;;14.90;99.90;;;;;;5074554;28;20264;-70
2021/09/21 08:42:59;;;;;;;4.95;2.65;;;14.80;99.90;;;;;;5074936;28;20218;-75
2021/09/21 08:45:27;;;;;;;3.78;1.95;;;14.70;99.90;;;;;;5072283;28;20666;-75
2021/09/21 08:47:55;;;;;;;8.70;2.92;;;14.80;99.90;;;;;;5071669;28;20652;-75
2021/09/21 08:50:24;;;;;;;5.93;2.55;;;14.90;99.90;;;;;;5078689;28;20251;-72
2021/09/21 08:52:51;;;;;;;6.03;3.00;;;14.90;99.90;;;;;;5080281;28;20680;-76
2021/09/21 08:55:18;;;;;;;6.10;1.80;;;14.80;99.90;;;;;;5084342;28;20206;-73
2021/09/21 08:57:46;;;;;;;9.52;2.90;;;14.80;99.90;;;;;;5074766;28;20633;-75
2021/09/21 09:00:21;;;;;;;3.83;2.25;;;14.80;99.90;;;;;;5070151;28;20214;-76
2021/09/21 09:02:48;;;;;;;7.07;2.25;;;14.90;99.90;;;;;;5070580;28;20212;-81
2021/09/21 09:05:16;;;;;;;6.22;2.03;;;15.00;99.90;;;;;;5071880;28;20259;-90
2021/09/21 09:07:50;;;;;;;5.35;2.13;;;14.90;99.90;;;;;;5076032;28;20226;-84
2021/09/21 09:10:18;;;;;;;6.43;2.95;;;15.00;99.90;;;;;;5070472;28;20681;-79
2021/09/21 09:12:46;;;;;;;4.90;2.03;;;14.90;99.90;;;;;;5080688;28;20209;-81
2021/09/21 09:15:15;;;;;;;5.13;2.80;;;15.00;99.90;;;;;;5079833;28;20316;-78
2021/09/21 09:17:53;;;;;;;3.90;2.47;;;15.00;99.90;;;;;;5077799;28;20256;-80
2021/09/21 09:20:36;;;;;;;6.18;2.53;;;15.10;99.90;;;;;;5087584;28;20284;-73
2021/09/21 09:23:06;;;;;;;8.40;3.40;;;15.10;99.90;;;;;;5071037;28;20630;-77
2021/09/21 09:25:33;;;;;;;3.65;2.40;;;15.30;99.90;;;;;;5078046;28;20293;-79
2021/09/21 09:28:01;;;;;;;6.45;2.45;;;15.60;99.90;;;;;;5071352;28;20233;-83
2021/09/21 09:30:28;;;;;;;9.13;2.20;;;15.80;99.90;;;;;;5075379;28;20566;-75
2021/09/21 09:32:57;;;;;;;4.13;2.15;;;16.20;99.90;;;;;;5076998;28;20559;-81
2021/09/21 09:35:26;;;;;;;5.85;2.55;;;16.70;99.90;;;;;;5074529;28;20206;-71
2021/09/21 09:37:55;;;;;;;8.02;2.85;;;17.00;99.90;;;;;;5072907;28;20206;-74
2021/09/21 09:40:22;;;;;;;6.00;2.38;;;16.80;99.90;;;;;;5072350;28;20665;-71
2021/09/21 09:42:49;;;;;;;5.07;2.10;;;16.60;99.90;;;;;;5070065;28;20729;-71
2021/09/21 09:45:28;;;;;;;8.18;2.45;;;16.40;99.90;;;;;;5072722;28;20662;-80
2021/09/21 09:47:57;;;;;;;6.80;2.38;;;16.40;99.90;;;;;;5072335;28;20239;-76
2021/09/21 09:50:27;;;;;;;5.18;2.25;;;16.20;99.90;;;;;;5069468;28;20279;-79
2021/09/21 09:53:16;;;;;;;9.48;2.95;;;16.10;99.90;;;;;;5073012;28;20290;-75
2021/09/21 09:55:45;;;;;;;4.80;2.30;;;16.00;99.90;;;;;;5065636;28;20215;-79
2021/09/21 09:58:13;;;;;;;4.88;2.33;;;15.80;99.90;;;;;;5069335;28;20268;-75
2021/09/21 10:00:40;;;;;;;8.75;2.55;;;15.50;99.90;;;;;;5064802;28;20604;-77
2021/09/21 10:03:08;;;;;;;6.10;2.05;;;15.50;99.90;;;;;;5069895;28;20211;-79
2021/09/21 10:05:36;;;;;;;6.15;2.85;;;15.50;99.90;;;;;;5070460;28;20210;-78
2021/09/21 10:08:04;;;;;;;5.85;2.72;;;15.50;99.90;;;;;;5069748;28;20713;-80
2021/09/21 10:10:35;;;;;;;4.60;3.10;;;15.50;99.90;;;;;;5069187;28;20240;-76
2021/09/21 10:13:03;;;;;;;6.03;2.25;;;15.70;99.90;;;;;;5069431;28;20278;-79
2021/09/21 10:15:31;;;;;;;3.67;2.33;;;15.70;99.90;;;;;;5071708;28;20677;-75
2021/09/21 10:18:00;;;;;;;8.23;2.65;;;15.90;99.90;;;;;;5072170;28;20217;-78
2021/09/21 10:20:33;;;;;;;7.88;5.97;;;15.90;99.90;;;;;;5074969;28;20213;-74
2021/09/21 10:23:00;;;;;;;8.43;3.75;;;16.10;99.90;;;;;;5083384;28;20202;-76
2021/09/21 10:25:29;;;;;;;6.28;3.28;;;16.40;99.90;;;;;;5073457;28;20259;-77
2021/09/21 10:27:59;;;;;;;11.35;3.20;;;16.60;99.90;;;;;;5072352;28;20226;-74
2021/09/21 10:30:29;;;;;;;9.95;3.80;;;16.70;99.90;;;;;;5072485;28;20563;-78
2021/09/21 10:32:58;;;;;;;6.32;2.28;;;16.60;99.90;;;;;;5072502;28;20216;-76
2021/09/21 10:35:30;;;;;;;9.45;2.42;;;16.60;99.90;;;;;;5071682;28;20251;-76
2021/09/21 10:38:03;;;;;;;7.30;3.35;;;16.40;99.90;;;;;;5072584;28;20228;-75
2021/09/21 10:40:41;;;;;;;5.72;2.17;;;16.50;99.90;;;;;;5072763;28;20688;-74
2021/09/21 10:43:21;;;;;;;6.97;2.63;;;16.40;99.90;;;;;;5072355;28;20202;-77
2021/09/21 10:45:50;;;;;;;8.05;2.58;;;16.40;99.90;;;;;;5073080;28;20208;-75
2021/09/21 10:48:21;;;;;;;4.07;2.83;;;16.50;99.90;;;;;;5072042;28;20241;-80
2021/09/21 10:50:56;;;;;;;5.50;2.30;;;16.60;99.90;;;;;;5072306;28;20298;-78
2021/09/21 10:53:25;;;;;;;5.82;2.60;;;16.90;99.90;;;;;;5072347;28;20209;-76
2021/09/21 10:56:00;;;;;;;5.35;3.25;;;17.10;99.90;;;;;;5071418;28;20260;-78
2021/09/21 10:58:29;;;;;;;10.32;3.10;;;17.20;99.90;;;;;;5074493;28;20646;-77
2021/09/21 11:00:57;;;;;;;5.07;2.80;;;17.00;99.90;;;;;;5072417;28;20259;-76
2021/09/21 11:03:25;;;;;;;7.55;3.08;;;17.00;99.90;;;;;;5072936;28;20202;-74
2021/09/21 11:05:54;;;;;;;4.18;2.72;;;17.20;99.90;;;;;;5070494;28;20234;-74
2021/09/21 11:08:28;;;;;;;6.63;3.58;;;17.30;99.90;;;;;;5071914;28;20284;-77
2021/09/21 11:10:59;;;;;;;8.00;2.95;;;17.60;99.90;;;;;;5071664;28;20633;-78
2021/09/21 11:13:28;;;;;;;12.77;3.42;;;17.90;99.90;;;;;;5071487;28;20214;-78
2021/09/21 11:16:01;;;;;;;5.90;2.67;;;18.20;99.90;;;;;;5071890;28;20252;-76
2021/09/21 11:18:29;;;;;;;6.03;3.45;;;18.20;99.90;;;;;;5068806;28;20206;-76
2021/09/21 11:20:58;;;;;;;6.45;3.28;;;18.00;99.90;;;;;;5070843;28;20206;-77
2021/09/21 11:23:27;;;;;;;5.50;2.53;;;18.10;99.90;;;;;;5061513;28;20206;-76
2021/09/21 11:25:58;;;;;;;4.68;2.58;;;18.20;99.90;;;;;;5072478;28;20206;-75
2021/09/21 11:28:26;;;;;;;5.13;3.55;;;18.50;99.90;;;;;;5071473;28;20226;-75
2021/09/21 11:30:54;;;;;;;5.68;3.13;;;18.60;99.90;;;;;;5080787;28;20298;-77
2021/09/21 11:33:25;;;;;;;6.43;3.08;;;18.80;99.90;;;;;;5075245;28;20665;-78
2021/09/21 11:35:57;;;;;;;4.78;3.20;;;18.70;99.90;;;;;;5069975;28;20271;-78
2021/09/21 11:38:28;;;;;;;6.03;3.08;;;18.50;99.90;;;;;;5071496;28;20202;-76
2021/09/21 11:40:55;;;;;;;13.43;3.88;;;18.50;99.90;;;;;;5071031;28;20251;-81
2021/09/21 11:43:23;;;;;;;6.35;3.35;;;18.40;99.90;;;;;;5070541;28;20210;-79
2021/09/21 11:45:51;;;;;;;4.90;3.92;;;18.30;99.90;;;;;;5068887;28;20202;-79
2021/09/21 11:48:20;;;;;;;5.68;2.85;;;18.20;99.90;;;;;;5071185;28;20237;-74
2021/09/21 11:50:49;;;;;;;7.18;3.03;;;18.20;99.90;;;;;;5075585;28;20260;-77
2021/09/21 11:53:18;;;;;;;6.40;3.97;;;18.00;99.90;;;;;;5075520;28;20214;-79
2021/09/21 11:55:47;;;;;;;6.07;3.58;;;17.90;99.90;;;;;;5078145;28;20690;-71
2021/09/21 11:58:15;;;;;;;8.63;4.47;;;18.00;99.90;;;;;;5072849;28;20285;-81
2021/09/21 12:00:44;;;;;;;8.75;3.92;;;17.80;99.90;;;;;;5071013;28;20681;-73
2021/09/21 12:03:12;;;;;;;6.97;3.63;;;17.70;99.90;;;;;;5071061;28;20263;-75
2021/09/21 12:05:40;;;;;;;5.10;3.38;;;17.60;99.90;;;;;;5072210;28;20214;-77
2021/09/21 12:08:12;;;;;;;6.50;3.72;;;17.60;99.90;;;;;;5069872;28;20237;-76
2021/09/21 12:10:40;;;;;;;5.63;3.95;;;17.80;99.90;;;;;;5074391;28;20301;-76
2021/09/21 12:13:12;;;;;;;6.47;3.47;;;17.80;99.90;;;;;;5071850;28;20727;-74
2021/09/21 12:15:40;;;;;;;6.63;3.95;;;17.80;99.90;;;;;;5073681;28;20214;-82
2021/09/21 12:18:11;;;;;;;5.32;3.65;;;17.80;99.90;;;;;;5073024;28;20272;-75
2021/09/21 12:20:38;;;;;;;6.70;3.45;;;17.90;99.90;;;;;;5072905;28;20210;-73
2021/09/21 12:23:07;;;;;;;8.55;4.18;;;18.30;99.90;;;;;;5073814;28;20677;-77
2021/09/21 12:25:36;;;;;;;5.47;3.65;;;18.50;99.90;;;;;;5071107;28;20206;-77
2021/09/21 12:28:06;;;;;;;7.72;3.90;;;18.40;99.90;;;;;;5069542;28;20260;-72
2021/09/21 12:30:36;;;;;;;7.68;4.57;;;18.50;99.90;;;;;;5074602;28;20210;-72
2021/09/21 12:33:05;;;;;;;5.13;3.15;;;18.50;99.90;;;;;;5069306;28;20206;-72
2021/09/21 12:35:34;;;;;;;4.90;4.10;;;18.70;99.90;;;;;;5073966;28;20244;-72
2021/09/21 12:38:04;;;;;;;5.88;4.53;;;18.90;99.90;;;;;;5069434;28;20259;-80
2021/09/21 12:40:31;;;;;;;8.30;5.10;;;18.90;99.90;;;;;;5076165;28;20669;-75
2021/09/21 12:43:04;;;;;;;9.60;5.28;;;19.30;99.90;;;;;;5075180;28;20727;-72
2021/09/21 12:45:34;;;;;;;6.65;3.63;;;19.60;99.90;;;;;;5073976;28;20270;-77
2021/09/21 12:48:04;;;;;;;6.43;3.40;;;19.50;99.90;;;;;;5074377;28;20252;-72
2021/09/21 12:50:31;;;;;;;5.82;4.22;;;19.60;99.90;;;;;;5076179;28;20291;-73
2021/09/21 12:53:00;;;;;;;4.45;3.38;;;19.30;99.90;;;;;;5077852;28;20309;-77
2021/09/21 12:55:33;;;;;;;10.68;4.00;;;19.00;99.90;;;;;;5074932;28;20248;-76
2021/09/21 12:58:04;;;;;;;5.22;3.78;;;19.00;99.90;;;;;;5076765;28;20247;-72
2021/09/21 13:00:36;;;;;;;4.80;3.90;;;19.00;99.90;;;;;;5070321;28;20210;-72